Rufus, OR (97050)

12:08 PM PDT on September 01, 2014 (GMT -0700)
Easy Acres | Change Station
CLOSE
Current Station
Personal Weather Station
Location: Goldendale, WA
Elevation: 1733 ft
Nearby Weather Stations

Elev 1733 ft 45.80 °N, 120.82 °W | Updated 51 seconds ago

Clear
Clear
71.0 °F
Feels Like 77 °F
N
2.0
Wind Variable Wind from WSW
Gusts 8.0 mph

Today
High -- | Low -- °F
--% Chance of Precip.
Yesterday
High -- | Low -- °F
Precip. -- in
6:24 AM 7:40 PM
Waxing Crescent, 43% visible
Pressure 30.01 in
Visibility 10.0 miles
Clouds Clear
Heat Index 77 °F
Dew Point 46 °F
Humidity 40%
Rainfall 0.00 in
Snow Depth Not available.
UV 7 out of 12
Pollen 3.90 out of 12
Air Quality Not available.
Flu Activity Not available.
METAR KDLS 011853Z AUTO 30006KT 10SM CLR 24/09 A3002 RMK AO2 SLP163 T02390094

More Conditions Fewer Conditions

Pressure 30.01 in
Visibility 10.0 miles
Clouds Clear
Heat Index 77 °F
Dew Point 46 °F
Humidity 40%
Rainfall 0.00 in
Snow Depth Not available.
UV 7 out of 12
Pollen 3.90 out of 12
Air Quality Not available.
Flu Activity Not available.
METAR KDLS 011853Z AUTO 30006KT 10SM CLR 24/09 A3002 RMK AO2 SLP163 T02390094

More Conditions Fewer Conditions

10-Day Weather Forecast

Almanac

Astronomy

Sep. 01, 2014 Rise Set
Actual Time 6:24 AM PDT 7:40 PM PDT
Civil Twilight 5:53 AM PDT 8:11 PM PDT
Nautical Twilight 5:16 AM PDT 8:47 PM PDT
Astronomical Twilight 4:36 AM PDT 9:27 PM PDT
Moon 1:35 PM PDT 11:24 PM PDT
Length of Visible Light 14h 17m
Length of Day
13h 16m
Tomorrow will be 3m 6s shorter.
Waxing Crescent, 43% of the Moon is Illuminated
Today
Waxing Crescent
Sep 2
First Quarter
Sep 8
Full
Sep 15
Last Quarter
Sep 24
New

Today's Extremes

State Highs State Lows

Community

WunderPhotos

Upload Photos

1,749,367 photos uploaded!

WunderBlogs® & News

Nearby

Snow Depth

Station Depth Elevation
Greenpoint 0 in 3200 ft
Mud Ridge 0 in 3800 ft
Blazed Alder 0 in 3650 ft
Clear Lake 1 in 3500 ft
North Fork 1 in 3120 ft

Earthquake Activity

City Distance Mag. Time & Date
No recent earthquake activity has been reported nearby.
Minimum magnitude displayed is 2.5.

Coastal Water Temperatures

Place Temperature
No Stations Reporting

Nearby Weather Stations